Sharonville, Ohio
Current Conditions -  °F | °C
As of 1:53 AM on Monday 24 Nov 2014 (Local Time) from KHAO Reporting Station
Overcast Overcast  
Wind Chill: 59°   Ceiling: 1800
Heat Index: 59°   Visibility: 10mi
Dew Point: 56°   Wind: 16mph
Humidity: 90%   Direction: 220°SW
Pressure: 29.3"   Gusts: 26mph
Location:  39.27°N, 84.41°W
Report Text: KHAO 240653Z AUTO 22014G23KT 10SM BKN018 OVC023 15/13 A2930 RMK AO2 PK WND 20026/0620 RAE10 SLP920 P0000 T01500133
Loading
Personal Weather Stations






























Interactive Weather Map New forecast layout! Learn more

10-Day Weather Forecast

Advertisements
Track Severe Weather on mobile